sensor_id;sensor_type;location;lat;lon;timestamp;P1;durP1;ratioP1;P2;durP2;ratioP2
60859;SDS011;46694;54.382;9.708;2023-03-19T00:01:39;135.03;;;75.03;;
60859;SDS011;46694;54.382;9.708;2023-03-19T00:07:38;132.03;;;76.90;;
60859;SDS011;46694;54.382;9.708;2023-03-19T00:10:18;129.00;;;75.47;;
60859;SDS011;46694;54.382;9.708;2023-03-19T00:12:57;130.00;;;74.97;;
60859;SDS011;46694;54.382;9.708;2023-03-19T00:15:37;137.50;;;79.73;;
60859;SDS011;46694;54.382;9.708;2023-03-19T00:18:16;128.53;;;74.07;;
60859;SDS011;46694;54.382;9.708;2023-03-19T00:20:56;124.07;;;71.67;;
60859;SDS011;46694;54.382;9.708;2023-03-19T00:23:36;125.37;;;69.20;;
60859;SDS011;46694;54.382;9.708;2023-03-19T00:26:15;125.13;;;70.67;;
60859;SDS011;46694;54.382;9.708;2023-03-19T00:28:55;120.43;;;68.27;;
60859;SDS011;46694;54.382;9.708;2023-03-19T00:31:35;129.57;;;70.63;;
60859;SDS011;46694;54.382;9.708;2023-03-19T00:34:14;121.57;;;67.30;;
60859;SDS011;46694;54.382;9.708;2023-03-19T00:36:57;125.03;;;68.80;;
60859;SDS011;46694;54.382;9.708;2023-03-19T00:39:36;113.77;;;65.90;;
60859;SDS011;46694;54.382;9.708;2023-03-19T00:42:16;116.27;;;68.30;;
60859;SDS011;46694;54.382;9.708;2023-03-19T00:44:55;108.70;;;64.00;;
60859;SDS011;46694;54.382;9.708;2023-03-19T00:47:35;129.50;;;71.70;;
60859;SDS011;46694;54.382;9.708;2023-03-19T00:50:14;126.73;;;71.10;;
60859;SDS011;46694;54.382;9.708;2023-03-19T00:52:54;123.67;;;72.23;;
60859;SDS011;46694;54.382;9.708;2023-03-19T00:55:34;140.17;;;78.07;;
60859;SDS011;46694;54.382;9.708;2023-03-19T00:58:14;123.13;;;72.03;;
60859;SDS011;46694;54.382;9.708;2023-03-19T01:00:53;132.30;;;72.23;;
60859;SDS011;46694;54.382;9.708;2023-03-19T01:03:34;129.03;;;71.20;;
60859;SDS011;46694;54.382;9.708;2023-03-19T01:06:13;123.82;;;70.28;;
60859;SDS011;46694;54.382;9.708;2023-03-19T01:08:53;133.95;;;74.53;;
60859;SDS011;46694;54.382;9.708;2023-03-19T01:11:33;132.30;;;72.20;;
60859;SDS011;46694;54.382;9.708;2023-03-19T01:14:14;120.72;;;69.43;;
60859;SDS011;46694;54.382;9.708;2023-03-19T01:16:54;133.93;;;73.80;;
60859;SDS011;46694;54.382;9.708;2023-03-19T01:19:34;136.60;;;76.70;;
60859;SDS011;46694;54.382;9.708;2023-03-19T01:22:14;132.30;;;70.73;;
60859;SDS011;46694;54.382;9.708;2023-03-19T01:24:54;135.13;;;73.87;;
60859;SDS011;46694;54.382;9.708;2023-03-19T01:27:34;126.47;;;71.07;;
60859;SDS011;46694;54.382;9.708;2023-03-19T01:30:14;135.43;;;73.43;;
60859;SDS011;46694;54.382;9.708;2023-03-19T01:32:53;136.00;;;74.53;;
60859;SDS011;46694;54.382;9.708;2023-03-19T01:35:33;142.70;;;76.07;;
60859;SDS011;46694;54.382;9.708;2023-03-19T01:38:12;140.87;;;74.07;;
60859;SDS011;46694;54.382;9.708;2023-03-19T01:40:52;131.37;;;70.90;;
60859;SDS011;46694;54.382;9.708;2023-03-19T01:43:32;137.53;;;71.87;;
60859;SDS011;46694;54.382;9.708;2023-03-19T01:49:11;132.63;;;70.03;;
60859;SDS011;46694;54.382;9.708;2023-03-19T01:51:51;133.63;;;72.57;;
60859;SDS011;46694;54.382;9.708;2023-03-19T01:54:33;136.60;;;72.90;;
60859;SDS011;46694;54.382;9.708;2023-03-19T01:57:14;132.90;;;71.00;;
60859;SDS011;46694;54.382;9.708;2023-03-19T01:59:55;133.10;;;70.40;;
60859;SDS011;46694;54.382;9.708;2023-03-19T02:02:38;140.87;;;70.90;;
60859;SDS011;46694;54.382;9.708;2023-03-19T02:05:19;150.85;;;78.65;;
60859;SDS011;46694;54.382;9.708;2023-03-19T02:08:04;155.27;;;75.43;;
60859;SDS011;46694;54.382;9.708;2023-03-19T02:10:45;157.05;;;77.55;;
60859;SDS011;46694;54.382;9.708;2023-03-19T02:13:26;162.45;;;80.32;;
60859;SDS011;46694;54.382;9.708;2023-03-19T02:16:06;160.70;;;79.47;;
60859;SDS011;46694;54.382;9.708;2023-03-19T02:18:46;147.65;;;78.97;;
60859;SDS011;46694;54.382;9.708;2023-03-19T02:21:26;180.05;;;82.65;;
60859;SDS011;46694;54.382;9.708;2023-03-19T02:26:59;179.88;;;86.57;;
60859;SDS011;46694;54.382;9.708;2023-03-19T02:29:40;184.90;;;86.85;;
60859;SDS011;46694;54.382;9.708;2023-03-19T02:32:19;176.90;;;81.82;;
60859;SDS011;46694;54.382;9.708;2023-03-19T02:34:59;179.02;;;82.28;;
60859;SDS011;46694;54.382;9.708;2023-03-19T02:37:39;163.45;;;81.13;;
60859;SDS011;46694;54.382;9.708;2023-03-19T02:40:23;186.20;;;87.15;;
60859;SDS011;46694;54.382;9.708;2023-03-19T02:43:07;182.35;;;82.45;;
60859;SDS011;46694;54.382;9.708;2023-03-19T02:45:47;174.55;;;80.47;;
60859;SDS011;46694;54.382;9.708;2023-03-19T02:48:26;184.35;;;84.70;;
60859;SDS011;46694;54.382;9.708;2023-03-19T02:51:06;171.38;;;82.97;;
60859;SDS011;46694;54.382;9.708;2023-03-19T02:53:46;175.98;;;82.65;;
60859;SDS011;46694;54.382;9.708;2023-03-19T02:56:25;190.57;;;83.45;;
60859;SDS011;46694;54.382;9.708;2023-03-19T02:59:05;176.10;;;85.00;;
60859;SDS011;46694;54.382;9.708;2023-03-19T03:01:44;185.30;;;83.30;;
60859;SDS011;46694;54.382;9.708;2023-03-19T03:04:24;180.60;;;84.38;;
60859;SDS011;46694;54.382;9.708;2023-03-19T03:07:04;178.90;;;80.03;;
60859;SDS011;46694;54.382;9.708;2023-03-19T03:09:43;168.60;;;79.55;;
60859;SDS011;46694;54.382;9.708;2023-03-19T03:12:23;182.45;;;79.45;;
60859;SDS011;46694;54.382;9.708;2023-03-19T03:15:04;145.27;;;75.55;;
60859;SDS011;46694;54.382;9.708;2023-03-19T03:17:44;155.73;;;75.32;;
60859;SDS011;46694;54.382;9.708;2023-03-19T03:20:24;147.57;;;74.03;;
60859;SDS011;46694;54.382;9.708;2023-03-19T03:23:03;169.00;;;76.18;;
60859;SDS011;46694;54.382;9.708;2023-03-19T03:25:43;154.32;;;72.50;;
60859;SDS011;46694;54.382;9.708;2023-03-19T03:28:22;153.30;;;77.35;;
60859;SDS011;46694;54.382;9.708;2023-03-19T03:31:02;155.50;;;76.18;;
60859;SDS011;46694;54.382;9.708;2023-03-19T03:33:42;142.10;;;74.30;;
60859;SDS011;46694;54.382;9.708;2023-03-19T03:36:21;161.48;;;77.65;;
60859;SDS011;46694;54.382;9.708;2023-03-19T03:39:01;147.48;;;71.15;;
60859;SDS011;46694;54.382;9.708;2023-03-19T03:41:42;150.52;;;74.20;;
60859;SDS011;46694;54.382;9.708;2023-03-19T03:44:21;163.07;;;74.90;;
60859;SDS011;46694;54.382;9.708;2023-03-19T03:47:01;157.50;;;74.97;;
60859;SDS011;46694;54.382;9.708;2023-03-19T03:49:41;156.00;;;74.35;;
60859;SDS011;46694;54.382;9.708;2023-03-19T03:52:20;143.57;;;72.35;;
60859;SDS011;46694;54.382;9.708;2023-03-19T03:55:00;136.45;;;68.50;;
60859;SDS011;46694;54.382;9.708;2023-03-19T03:57:39;136.70;;;69.07;;
60859;SDS011;46694;54.382;9.708;2023-03-19T04:00:19;126.05;;;71.25;;
60859;SDS011;46694;54.382;9.708;2023-03-19T04:02:59;144.50;;;70.43;;
60859;SDS011;46694;54.382;9.708;2023-03-19T04:05:38;126.15;;;67.78;;
60859;SDS011;46694;54.382;9.708;2023-03-19T04:08:18;144.40;;;71.80;;
60859;SDS011;46694;54.382;9.708;2023-03-19T04:10:58;143.20;;;73.40;;
60859;SDS011;46694;54.382;9.708;2023-03-19T04:13:37;130.15;;;68.72;;
60859;SDS011;46694;54.382;9.708;2023-03-19T04:16:16;140.25;;;69.30;;
60859;SDS011;46694;54.382;9.708;2023-03-19T04:18:56;124.82;;;69.72;;
60859;SDS011;46694;54.382;9.708;2023-03-19T04:21:36;144.38;;;71.78;;
60859;SDS011;46694;54.382;9.708;2023-03-19T04:24:15;142.07;;;72.15;;
60859;SDS011;46694;54.382;9.708;2023-03-19T04:26:55;145.88;;;68.85;;
60859;SDS011;46694;54.382;9.708;2023-03-19T04:29:34;129.48;;;68.80;;
60859;SDS011;46694;54.382;9.708;2023-03-19T04:32:13;142.82;;;71.22;;
60859;SDS011;46694;54.382;9.708;2023-03-19T04:34:53;139.18;;;68.30;;
60859;SDS011;46694;54.382;9.708;2023-03-19T04:37:33;140.18;;;72.40;;
60859;SDS011;46694;54.382;9.708;2023-03-19T04:40:13;136.00;;;70.15;;
60859;SDS011;46694;54.382;9.708;2023-03-19T04:42:54;135.13;;;71.68;;
60859;SDS011;46694;54.382;9.708;2023-03-19T04:45:34;117.43;;;65.63;;
60859;SDS011;46694;54.382;9.708;2023-03-19T04:48:14;135.95;;;71.10;;
60859;SDS011;46694;54.382;9.708;2023-03-19T04:50:56;122.93;;;68.80;;
60859;SDS011;46694;54.382;9.708;2023-03-19T04:53:36;136.35;;;70.95;;
60859;SDS011;46694;54.382;9.708;2023-03-19T04:56:17;122.03;;;67.40;;
60859;SDS011;46694;54.382;9.708;2023-03-19T04:58:57;136.75;;;71.40;;
60859;SDS011;46694;54.382;9.708;2023-03-19T05:01:36;135.90;;;70.25;;
60859;SDS011;46694;54.382;9.708;2023-03-19T05:04:16;139.02;;;71.70;;
60859;SDS011;46694;54.382;9.708;2023-03-19T05:06:56;137.30;;;70.13;;
60859;SDS011;46694;54.382;9.708;2023-03-19T05:09:36;165.90;;;76.53;;
60859;SDS011;46694;54.382;9.708;2023-03-19T05:12:15;143.32;;;70.88;;
60859;SDS011;46694;54.382;9.708;2023-03-19T05:14:55;151.50;;;73.53;;
60859;SDS011;46694;54.382;9.708;2023-03-19T05:17:34;151.05;;;74.40;;
60859;SDS011;46694;54.382;9.708;2023-03-19T05:20:14;163.98;;;74.35;;
60859;SDS011;46694;54.382;9.708;2023-03-19T05:22:54;143.70;;;73.45;;
60859;SDS011;46694;54.382;9.708;2023-03-19T05:25:33;146.10;;;71.82;;
60859;SDS011;46694;54.382;9.708;2023-03-19T05:28:13;127.55;;;69.43;;
60859;SDS011;46694;54.382;9.708;2023-03-19T05:30:53;128.90;;;69.70;;
60859;SDS011;46694;54.382;9.708;2023-03-19T05:33:32;119.75;;;64.82;;
60859;SDS011;46694;54.382;9.708;2023-03-19T05:36:12;150.15;;;72.47;;
60859;SDS011;46694;54.382;9.708;2023-03-19T05:38:51;125.07;;;67.38;;
60859;SDS011;46694;54.382;9.708;2023-03-19T05:41:31;115.40;;;63.70;;
60859;SDS011;46694;54.382;9.708;2023-03-19T05:44:11;107.90;;;61.92;;
60859;SDS011;46694;54.382;9.708;2023-03-19T05:46:51;103.85;;;57.60;;
60859;SDS011;46694;54.382;9.708;2023-03-19T05:49:31;118.97;;;58.75;;
60859;SDS011;46694;54.382;9.708;2023-03-19T05:52:10;97.88;;;55.63;;
60859;SDS011;46694;54.382;9.708;2023-03-19T05:54:50;98.50;;;56.20;;
60859;SDS011;46694;54.382;9.708;2023-03-19T05:57:29;91.68;;;54.45;;
60859;SDS011;46694;54.382;9.708;2023-03-19T06:00:09;98.82;;;56.35;;
60859;SDS011;46694;54.382;9.708;2023-03-19T06:02:50;91.25;;;54.97;;
60859;SDS011;46694;54.382;9.708;2023-03-19T06:05:30;92.30;;;57.55;;
60859;SDS011;46694;54.382;9.708;2023-03-19T06:08:10;83.78;;;53.53;;
60859;SDS011;46694;54.382;9.708;2023-03-19T06:10:51;87.63;;;51.90;;
60859;SDS011;46694;54.382;9.708;2023-03-19T06:13:31;72.50;;;47.30;;
60859;SDS011;46694;54.382;9.708;2023-03-19T06:16:10;80.90;;;50.45;;
60859;SDS011;46694;54.382;9.708;2023-03-19T06:18:50;77.90;;;49.45;;
60859;SDS011;46694;54.382;9.708;2023-03-19T06:21:30;79.85;;;49.13;;
60859;SDS011;46694;54.382;9.708;2023-03-19T06:24:09;69.93;;;46.45;;
60859;SDS011;46694;54.382;9.708;2023-03-19T06:26:49;83.33;;;50.00;;
60859;SDS011;46694;54.382;9.708;2023-03-19T06:29:29;79.32;;;49.22;;
60859;SDS011;46694;54.382;9.708;2023-03-19T06:32:09;76.53;;;46.50;;
60859;SDS011;46694;54.382;9.708;2023-03-19T06:34:48;91.30;;;56.15;;
60859;SDS011;46694;54.382;9.708;2023-03-19T06:37:27;93.75;;;54.63;;
60859;SDS011;46694;54.382;9.708;2023-03-19T06:40:09;77.32;;;49.03;;
60859;SDS011;46694;54.382;9.708;2023-03-19T06:42:50;83.72;;;52.72;;
60859;SDS011;46694;54.382;9.708;2023-03-19T06:45:30;87.53;;;51.25;;
60859;SDS011;46694;54.382;9.708;2023-03-19T06:48:09;78.63;;;46.80;;
60859;SDS011;46694;54.382;9.708;2023-03-19T06:50:48;77.95;;;49.05;;
60859;SDS011;46694;54.382;9.708;2023-03-19T06:53:28;74.47;;;47.13;;
60859;SDS011;46694;54.382;9.708;2023-03-19T06:56:08;75.72;;;45.45;;
60859;SDS011;46694;54.382;9.708;2023-03-19T06:58:47;78.72;;;48.40;;
60859;SDS011;46694;54.382;9.708;2023-03-19T07:01:27;82.72;;;48.92;;
60859;SDS011;46694;54.382;9.708;2023-03-19T07:04:07;75.93;;;49.00;;
60859;SDS011;46694;54.382;9.708;2023-03-19T07:06:48;70.85;;;44.97;;
60859;SDS011;46694;54.382;9.708;2023-03-19T07:09:27;75.73;;;44.67;;
60859;SDS011;46694;54.382;9.708;2023-03-19T07:12:07;78.90;;;47.37;;
60859;SDS011;46694;54.382;9.708;2023-03-19T07:14:47;73.47;;;43.97;;
60859;SDS011;46694;54.382;9.708;2023-03-19T07:17:26;63.23;;;44.50;;
60859;SDS011;46694;54.382;9.708;2023-03-19T07:20:06;66.03;;;43.80;;
60859;SDS011;46694;54.382;9.708;2023-03-19T07:22:46;64.97;;;44.40;;
60859;SDS011;46694;54.382;9.708;2023-03-19T07:25:28;60.53;;;40.73;;
60859;SDS011;46694;54.382;9.708;2023-03-19T07:28:08;63.03;;;44.90;;
60859;SDS011;46694;54.382;9.708;2023-03-19T07:30:49;50.03;;;36.87;;
60859;SDS011;46694;54.382;9.708;2023-03-19T07:33:31;56.70;;;39.03;;
60859;SDS011;46694;54.382;9.708;2023-03-19T07:36:10;52.77;;;37.90;;
60859;SDS011;46694;54.382;9.708;2023-03-19T07:38:50;44.30;;;33.37;;
60859;SDS011;46694;54.382;9.708;2023-03-19T07:41:29;46.40;;;35.20;;
60859;SDS011;46694;54.382;9.708;2023-03-19T07:44:09;46.90;;;32.40;;
60859;SDS011;46694;54.382;9.708;2023-03-19T07:46:49;40.60;;;29.93;;
60859;SDS011;46694;54.382;9.708;2023-03-19T07:49:29;39.13;;;30.30;;
60859;SDS011;46694;54.382;9.708;2023-03-19T07:52:08;37.90;;;28.87;;
60859;SDS011;46694;54.382;9.708;2023-03-19T07:54:48;38.87;;;30.33;;
60859;SDS011;46694;54.382;9.708;2023-03-19T07:57:28;36.50;;;28.73;;
60859;SDS011;46694;54.382;9.708;2023-03-19T08:00:08;38.67;;;29.60;;
60859;SDS011;46694;54.382;9.708;2023-03-19T08:02:49;31.43;;;25.03;;
60859;SDS011;46694;54.382;9.708;2023-03-19T08:05:28;31.27;;;24.87;;
60859;SDS011;46694;54.382;9.708;2023-03-19T08:08:08;32.30;;;23.27;;
60859;SDS011;46694;54.382;9.708;2023-03-19T08:10:47;23.03;;;20.60;;
60859;SDS011;46694;54.382;9.708;2023-03-19T08:13:28;21.80;;;18.53;;
60859;SDS011;46694;54.382;9.708;2023-03-19T08:16:07;21.10;;;18.43;;
60859;SDS011;46694;54.382;9.708;2023-03-19T08:18:47;21.33;;;18.50;;
60859;SDS011;46694;54.382;9.708;2023-03-19T08:21:26;21.53;;;17.47;;
60859;SDS011;46694;54.382;9.708;2023-03-19T08:24:06;20.47;;;16.90;;
60859;SDS011;46694;54.382;9.708;2023-03-19T08:26:46;19.50;;;16.63;;
60859;SDS011;46694;54.382;9.708;2023-03-19T08:29:25;19.50;;;17.40;;
60859;SDS011;46694;54.382;9.708;2023-03-19T08:32:05;18.73;;;16.27;;
60859;SDS011;46694;54.382;9.708;2023-03-19T08:34:45;19.83;;;16.40;;
60859;SDS011;46694;54.382;9.708;2023-03-19T08:37:24;21.60;;;16.10;;
60859;SDS011;46694;54.382;9.708;2023-03-19T08:40:04;18.20;;;15.33;;
60859;SDS011;46694;54.382;9.708;2023-03-19T08:42:45;19.80;;;16.03;;
60859;SDS011;46694;54.382;9.708;2023-03-19T08:45:24;24.80;;;15.17;;
60859;SDS011;46694;54.382;9.708;2023-03-19T08:48:04;17.13;;;15.33;;
60859;SDS011;46694;54.382;9.708;2023-03-19T08:50:43;18.30;;;15.90;;
60859;SDS011;46694;54.382;9.708;2023-03-19T08:53:23;21.03;;;17.13;;
60859;SDS011;46694;54.382;9.708;2023-03-19T08:56:04;22.80;;;17.57;;
60859;SDS011;46694;54.382;9.708;2023-03-19T08:58:45;20.87;;;18.07;;
60859;SDS011;46694;54.382;9.708;2023-03-19T09:01:25;23.17;;;18.00;;
60859;SDS011;46694;54.382;9.708;2023-03-19T09:04:04;19.60;;;16.37;;
60859;SDS011;46694;54.382;9.708;2023-03-19T09:06:45;21.37;;;15.47;;
60859;SDS011;46694;54.382;9.708;2023-03-19T09:09:28;17.60;;;15.60;;
60859;SDS011;46694;54.382;9.708;2023-03-19T09:12:08;18.13;;;14.83;;
60859;SDS011;46694;54.382;9.708;2023-03-19T09:14:51;20.47;;;16.93;;
60859;SDS011;46694;54.382;9.708;2023-03-19T09:17:30;15.77;;;14.07;;
60859;SDS011;46694;54.382;9.708;2023-03-19T09:20:11;13.43;;;12.10;;
60859;SDS011;46694;54.382;9.708;2023-03-19T09:22:51;14.70;;;13.20;;
60859;SDS011;46694;54.382;9.708;2023-03-19T09:25:31;13.80;;;12.33;;
60859;SDS011;46694;54.382;9.708;2023-03-19T09:28:10;13.70;;;12.27;;
60859;SDS011;46694;54.382;9.708;2023-03-19T09:30:50;17.50;;;13.00;;
60859;SDS011;46694;54.382;9.708;2023-03-19T09:33:30;14.27;;;12.73;;
60859;SDS011;46694;54.382;9.708;2023-03-19T09:36:09;18.77;;;13.13;;
60859;SDS011;46694;54.382;9.708;2023-03-19T09:38:49;12.77;;;11.50;;
60859;SDS011;46694;54.382;9.708;2023-03-19T09:44:53;12.07;;;11.00;;
60859;SDS011;46694;54.382;9.708;2023-03-19T09:47:33;14.17;;;11.60;;
60859;SDS011;46694;54.382;9.708;2023-03-19T09:50:17;10.70;;;9.00;;
60859;SDS011;46694;54.382;9.708;2023-03-19T09:53:19;12.37;;;10.97;;
60859;SDS011;46694;54.382;9.708;2023-03-19T09:56:07;12.03;;;10.30;;
60859;SDS011;46694;54.382;9.708;2023-03-19T09:58:53;13.63;;;9.40;;
60859;SDS011;46694;54.382;9.708;2023-03-19T10:01:33;9.83;;;8.83;;
60859;SDS011;46694;54.382;9.708;2023-03-19T10:10:54;18.83;;;11.43;;
60859;SDS011;46694;54.382;9.708;2023-03-19T10:16:39;9.50;;;6.07;;
60859;SDS011;46694;54.382;9.708;2023-03-19T10:19:23;10.20;;;7.07;;
60859;SDS011;46694;54.382;9.708;2023-03-19T10:22:20;8.33;;;5.90;;
60859;SDS011;46694;54.382;9.708;2023-03-19T10:25:09;11.00;;;7.00;;
60859;SDS011;46694;54.382;9.708;2023-03-19T10:28:04;10.20;;;6.57;;
60859;SDS011;46694;54.382;9.708;2023-03-19T10:39:58;10.80;;;8.07;;
60859;SDS011;46694;54.382;9.708;2023-03-19T10:45:30;10.10;;;7.50;;
60859;SDS011;46694;54.382;9.708;2023-03-19T10:48:18;11.50;;;7.57;;
60859;SDS011;46694;54.382;9.708;2023-03-19T10:51:03;11.00;;;7.77;;
60859;SDS011;46694;54.382;9.708;2023-03-19T10:53:44;10.37;;;8.10;;
60859;SDS011;46694;54.382;9.708;2023-03-19T10:56:24;13.03;;;9.07;;
60859;SDS011;46694;54.382;9.708;2023-03-19T10:59:18;11.00;;;9.37;;
60859;SDS011;46694;54.382;9.708;2023-03-19T11:02:17;15.30;;;10.80;;
60859;SDS011;46694;54.382;9.708;2023-03-19T11:10:44;13.03;;;10.97;;
60859;SDS011;46694;54.382;9.708;2023-03-19T11:13:26;13.23;;;11.80;;
60859;SDS011;46694;54.382;9.708;2023-03-19T11:16:06;14.40;;;11.40;;
60859;SDS011;46694;54.382;9.708;2023-03-19T11:18:46;12.20;;;10.90;;
60859;SDS011;46694;54.382;9.708;2023-03-19T11:21:28;13.77;;;12.33;;
60859;SDS011;46694;54.382;9.708;2023-03-19T11:24:10;14.97;;;12.10;;
60859;SDS011;46694;54.382;9.708;2023-03-19T11:26:54;11.77;;;10.60;;
60859;SDS011;46694;54.382;9.708;2023-03-19T11:29:36;15.00;;;12.23;;
60859;SDS011;46694;54.382;9.708;2023-03-19T11:35:24;13.53;;;11.87;;
60859;SDS011;46694;54.382;9.708;2023-03-19T11:54:07;13.30;;;10.93;;
60859;SDS011;46694;54.382;9.708;2023-03-19T11:56:53;11.77;;;10.50;;
60859;SDS011;46694;54.382;9.708;2023-03-19T12:07:06;14.30;;;12.90;;
60859;SDS011;46694;54.382;9.708;2023-03-19T12:13:26;14.07;;;12.43;;
60859;SDS011;46694;54.382;9.708;2023-03-19T12:20:02;15.00;;;12.57;;
60859;SDS011;46694;54.382;9.708;2023-03-19T12:23:14;16.40;;;13.63;;
60859;SDS011;46694;54.382;9.708;2023-03-19T12:26:38;18.10;;;14.53;;
60859;SDS011;46694;54.382;9.708;2023-03-19T12:29:29;16.30;;;13.23;;
60859;SDS011;46694;54.382;9.708;2023-03-19T12:35:12;19.23;;;13.60;;
60859;SDS011;46694;54.382;9.708;2023-03-19T12:40:48;19.23;;;14.63;;
60859;SDS011;46694;54.382;9.708;2023-03-19T12:43:53;20.03;;;14.60;;
60859;SDS011;46694;54.382;9.708;2023-03-19T12:46:44;23.87;;;17.50;;
60859;SDS011;46694;54.382;9.708;2023-03-19T12:52:43;17.60;;;15.10;;
60859;SDS011;46694;54.382;9.708;2023-03-19T12:58:23;24.17;;;20.00;;
60859;SDS011;46694;54.382;9.708;2023-03-19T13:01:26;19.20;;;16.10;;
60859;SDS011;46694;54.382;9.708;2023-03-19T13:04:21;19.20;;;15.67;;
60859;SDS011;46694;54.382;9.708;2023-03-19T13:07:10;17.47;;;13.83;;
60859;SDS011;46694;54.382;9.708;2023-03-19T13:10:36;16.90;;;13.03;;
60859;SDS011;46694;54.382;9.708;2023-03-19T13:13:23;21.87;;;15.00;;
60859;SDS011;46694;54.382;9.708;2023-03-19T13:16:36;17.73;;;14.87;;
60859;SDS011;46694;54.382;9.708;2023-03-19T13:22:12;23.83;;;16.00;;
60859;SDS011;46694;54.382;9.708;2023-03-19T13:24:55;21.00;;;16.63;;
60859;SDS011;46694;54.382;9.708;2023-03-19T13:27:38;22.20;;;15.93;;
60859;SDS011;46694;54.382;9.708;2023-03-19T13:30:17;21.53;;;16.50;;
60859;SDS011;46694;54.382;9.708;2023-03-19T13:33:03;20.83;;;16.60;;
60859;SDS011;46694;54.382;9.708;2023-03-19T13:35:48;22.03;;;16.63;;
60859;SDS011;46694;54.382;9.708;2023-03-19T13:38:33;22.27;;;16.60;;
60859;SDS011;46694;54.382;9.708;2023-03-19T13:47:00;22.07;;;17.70;;
60859;SDS011;46694;54.382;9.708;2023-03-19T13:52:47;23.60;;;17.90;;
60859;SDS011;46694;54.382;9.708;2023-03-19T13:55:32;23.67;;;17.40;;
60859;SDS011;46694;54.382;9.708;2023-03-19T13:58:25;27.13;;;17.33;;
60859;SDS011;46694;54.382;9.708;2023-03-19T14:04:05;21.40;;;17.50;;
60859;SDS011;46694;54.382;9.708;2023-03-19T14:06:55;23.27;;;17.90;;
60859;SDS011;46694;54.382;9.708;2023-03-19T14:12:36;18.60;;;15.40;;
60859;SDS011;46694;54.382;9.708;2023-03-19T14:15:20;22.13;;;17.80;;
60859;SDS011;46694;54.382;9.708;2023-03-19T14:18:02;21.20;;;15.07;;
60859;SDS011;46694;54.382;9.708;2023-03-19T14:20:44;19.67;;;16.47;;
60859;SDS011;46694;54.382;9.708;2023-03-19T14:23:38;20.30;;;15.70;;
60859;SDS011;46694;54.382;9.708;2023-03-19T14:26:23;18.43;;;14.80;;
60859;SDS011;46694;54.382;9.708;2023-03-19T14:29:10;19.60;;;15.50;;
60859;SDS011;46694;54.382;9.708;2023-03-19T14:31:54;26.20;;;17.37;;
60859;SDS011;46694;54.382;9.708;2023-03-19T14:34:38;21.50;;;16.27;;
60859;SDS011;46694;54.382;9.708;2023-03-19T14:37:22;19.77;;;15.67;;
60859;SDS011;46694;54.382;9.708;2023-03-19T14:49:58;24.40;;;17.23;;
60859;SDS011;46694;54.382;9.708;2023-03-19T14:53:04;21.40;;;15.63;;
60859;SDS011;46694;54.382;9.708;2023-03-19T14:55:56;23.20;;;16.70;;
60859;SDS011;46694;54.382;9.708;2023-03-19T14:58:51;27.10;;;17.80;;
60859;SDS011;46694;54.382;9.708;2023-03-19T15:01:33;20.33;;;16.90;;
60859;SDS011;46694;54.382;9.708;2023-03-19T15:04:19;24.80;;;17.93;;
60859;SDS011;46694;54.382;9.708;2023-03-19T15:07:01;26.93;;;18.40;;
60859;SDS011;46694;54.382;9.708;2023-03-19T15:09:40;26.97;;;19.00;;
60859;SDS011;46694;54.382;9.708;2023-03-19T15:15:36;35.23;;;22.63;;
60859;SDS011;46694;54.382;9.708;2023-03-19T15:18:23;42.03;;;24.87;;
60859;SDS011;46694;54.382;9.708;2023-03-19T15:21:03;51.40;;;29.57;;
60859;SDS011;46694;54.382;9.708;2023-03-19T15:23:44;32.00;;;21.73;;
60859;SDS011;46694;54.382;9.708;2023-03-19T15:26:28;53.67;;;30.70;;
60859;SDS011;46694;54.382;9.708;2023-03-19T15:29:12;30.13;;;20.37;;
60859;SDS011;46694;54.382;9.708;2023-03-19T15:31:52;24.33;;;18.93;;
60859;SDS011;46694;54.382;9.708;2023-03-19T15:34:32;26.00;;;19.20;;
60859;SDS011;46694;54.382;9.708;2023-03-19T15:37:12;25.63;;;19.40;;
60859;SDS011;46694;54.382;9.708;2023-03-19T15:39:53;28.37;;;19.70;;
60859;SDS011;46694;54.382;9.708;2023-03-19T15:42:34;31.20;;;20.07;;
60859;SDS011;46694;54.382;9.708;2023-03-19T15:45:20;30.03;;;21.80;;
60859;SDS011;46694;54.382;9.708;2023-03-19T15:48:09;29.40;;;21.93;;
60859;SDS011;46694;54.382;9.708;2023-03-19T15:50:55;27.57;;;20.70;;
60859;SDS011;46694;54.382;9.708;2023-03-19T15:53:38;29.37;;;20.60;;
60859;SDS011;46694;54.382;9.708;2023-03-19T15:56:17;31.23;;;21.37;;
60859;SDS011;46694;54.382;9.708;2023-03-19T15:58:57;27.23;;;20.67;;
60859;SDS011;46694;54.382;9.708;2023-03-19T16:01:37;29.87;;;21.00;;
60859;SDS011;46694;54.382;9.708;2023-03-19T16:04:18;28.00;;;21.90;;
60859;SDS011;46694;54.382;9.708;2023-03-19T16:07:03;30.03;;;22.80;;
60859;SDS011;46694;54.382;9.708;2023-03-19T16:09:43;30.30;;;22.30;;
60859;SDS011;46694;54.382;9.708;2023-03-19T16:12:36;28.23;;;21.70;;
60859;SDS011;46694;54.382;9.708;2023-03-19T16:18:23;35.33;;;22.03;;
60859;SDS011;46694;54.382;9.708;2023-03-19T16:24:29;27.50;;;19.50;;
60859;SDS011;46694;54.382;9.708;2023-03-19T16:27:15;29.93;;;21.40;;
60859;SDS011;46694;54.382;9.708;2023-03-19T16:29:58;35.87;;;20.20;;
60859;SDS011;46694;54.382;9.708;2023-03-19T16:32:38;28.00;;;22.27;;
60859;SDS011;46694;54.382;9.708;2023-03-19T16:35:17;31.77;;;21.30;;
60859;SDS011;46694;54.382;9.708;2023-03-19T16:38:05;28.20;;;21.27;;
60859;SDS011;46694;54.382;9.708;2023-03-19T16:41:17;26.73;;;21.20;;
60859;SDS011;46694;54.382;9.708;2023-03-19T16:44:11;28.50;;;20.97;;
60859;SDS011;46694;54.382;9.708;2023-03-19T16:46:55;26.70;;;22.07;;
60859;SDS011;46694;54.382;9.708;2023-03-19T16:49:34;26.50;;;20.93;;
60859;SDS011;46694;54.382;9.708;2023-03-19T16:52:16;28.57;;;21.70;;
60859;SDS011;46694;54.382;9.708;2023-03-19T16:55:00;30.30;;;22.10;;
60859;SDS011;46694;54.382;9.708;2023-03-19T16:57:43;28.93;;;22.70;;
60859;SDS011;46694;54.382;9.708;2023-03-19T17:00:22;33.20;;;22.57;;
60859;SDS011;46694;54.382;9.708;2023-03-19T17:03:05;34.60;;;24.50;;
60859;SDS011;46694;54.382;9.708;2023-03-19T17:05:54;34.13;;;24.87;;
60859;SDS011;46694;54.382;9.708;2023-03-19T17:08:34;32.80;;;24.87;;
60859;SDS011;46694;54.382;9.708;2023-03-19T17:11:17;35.63;;;26.50;;
60859;SDS011;46694;54.382;9.708;2023-03-19T17:14:12;33.20;;;25.50;;
60859;SDS011;46694;54.382;9.708;2023-03-19T17:16:55;37.40;;;26.83;;
60859;SDS011;46694;54.382;9.708;2023-03-19T17:19:35;37.30;;;27.50;;
60859;SDS011;46694;54.382;9.708;2023-03-19T17:22:14;38.60;;;27.43;;
60859;SDS011;46694;54.382;9.708;2023-03-19T17:24:54;39.17;;;28.83;;
60859;SDS011;46694;54.382;9.708;2023-03-19T17:27:34;38.07;;;28.40;;
60859;SDS011;46694;54.382;9.708;2023-03-19T17:30:14;38.30;;;27.30;;
60859;SDS011;46694;54.382;9.708;2023-03-19T17:32:53;38.30;;;27.30;;
60859;SDS011;46694;54.382;9.708;2023-03-19T17:35:34;36.87;;;27.93;;
60859;SDS011;46694;54.382;9.708;2023-03-19T17:38:15;38.40;;;26.73;;
60859;SDS011;46694;54.382;9.708;2023-03-19T17:40:56;38.63;;;26.23;;
60859;SDS011;46694;54.382;9.708;2023-03-19T17:43:35;38.00;;;26.77;;
60859;SDS011;46694;54.382;9.708;2023-03-19T17:46:19;38.23;;;27.87;;
60859;SDS011;46694;54.382;9.708;2023-03-19T17:49:01;38.70;;;26.43;;